sensor_id;sensor_type;location;lat;lon;timestamp;pressure;altitude;pressure_sealevel;temperature
61703;BMP280;47622;47.726;3.298;2023-05-14T00:00:42;99242.22;;;9.86
61703;BMP280;47622;47.726;3.298;2023-05-14T00:03:07;99239.69;;;9.94
61703;BMP280;47622;47.726;3.298;2023-05-14T00:05:34;99236.38;;;9.89
61703;BMP280;47622;47.726;3.298;2023-05-14T00:07:59;99233.31;;;9.87
61703;BMP280;47622;47.726;3.298;2023-05-14T00:10:26;99232.00;;;9.84
61703;BMP280;47622;47.726;3.298;2023-05-14T00:12:53;99225.91;;;9.75
61703;BMP280;47622;47.726;3.298;2023-05-14T00:15:18;99229.59;;;9.74
61703;BMP280;47622;47.726;3.298;2023-05-14T00:17:44;99226.69;;;9.75
61703;BMP280;47622;47.726;3.298;2023-05-14T00:20:10;99223.06;;;9.71
61703;BMP280;47622;47.726;3.298;2023-05-14T00:22:37;99224.16;;;9.70
61703;BMP280;47622;47.726;3.298;2023-05-14T00:25:05;99231.53;;;9.68
61703;BMP280;47622;47.726;3.298;2023-05-14T00:27:31;99222.78;;;9.59
61703;BMP280;47622;47.726;3.298;2023-05-14T00:29:56;99228.03;;;9.59
61703;BMP280;47622;47.726;3.298;2023-05-14T00:32:23;99225.28;;;9.51
61703;BMP280;47622;47.726;3.298;2023-05-14T00:34:48;99233.81;;;9.56
61703;BMP280;47622;47.726;3.298;2023-05-14T00:37:15;99226.25;;;9.55
61703;BMP280;47622;47.726;3.298;2023-05-14T00:39:40;99222.97;;;9.49
61703;BMP280;47622;47.726;3.298;2023-05-14T00:42:06;99222.72;;;9.32
61703;BMP280;47622;47.726;3.298;2023-05-14T00:44:31;99220.28;;;9.35
61703;BMP280;47622;47.726;3.298;2023-05-14T00:46:57;99215.28;;;9.39
61703;BMP280;47622;47.726;3.298;2023-05-14T00:49:23;99212.66;;;9.39
61703;BMP280;47622;47.726;3.298;2023-05-14T00:51:50;99213.50;;;9.34
61703;BMP280;47622;47.726;3.298;2023-05-14T00:54:17;99209.03;;;9.35
61703;BMP280;47622;47.726;3.298;2023-05-14T00:56:44;99211.75;;;9.30
61703;BMP280;47622;47.726;3.298;2023-05-14T00:59:10;99203.91;;;9.30
61703;BMP280;47622;47.726;3.298;2023-05-14T01:01:36;99206.53;;;9.30
61703;BMP280;47622;47.726;3.298;2023-05-14T01:04:02;99207.34;;;9.25
61703;BMP280;47622;47.726;3.298;2023-05-14T01:09:31;99204.84;;;9.20
61703;BMP280;47622;47.726;3.298;2023-05-14T01:12:18;99207.66;;;9.24
61703;BMP280;47622;47.726;3.298;2023-05-14T01:17:17;99197.84;;;9.15
61703;BMP280;47622;47.726;3.298;2023-05-14T01:19:47;99207.34;;;9.11
61703;BMP280;47622;47.726;3.298;2023-05-14T01:22:14;99210.75;;;9.12
61703;BMP280;47622;47.726;3.298;2023-05-14T01:24:41;99207.25;;;9.16
61703;BMP280;47622;47.726;3.298;2023-05-14T01:29:46;99208.13;;;9.26
61703;BMP280;47622;47.726;3.298;2023-05-14T01:32:16;99207.19;;;9.22
61703;BMP280;47622;47.726;3.298;2023-05-14T01:34:43;99206.03;;;9.28
61703;BMP280;47622;47.726;3.298;2023-05-14T01:37:10;99211.56;;;9.26
61703;BMP280;47622;47.726;3.298;2023-05-14T01:39:37;99212.97;;;9.18
61703;BMP280;47622;47.726;3.298;2023-05-14T01:42:04;99211.91;;;9.20
61703;BMP280;47622;47.726;3.298;2023-05-14T01:44:31;99203.56;;;9.17
61703;BMP280;47622;47.726;3.298;2023-05-14T01:46:57;99207.25;;;9.16
61703;BMP280;47622;47.726;3.298;2023-05-14T01:49:23;99199.78;;;9.10
61703;BMP280;47622;47.726;3.298;2023-05-14T01:51:48;99202.19;;;9.06
61703;BMP280;47622;47.726;3.298;2023-05-14T01:54:14;99202.19;;;9.06
61703;BMP280;47622;47.726;3.298;2023-05-14T01:56:40;99207.41;;;9.06
61703;BMP280;47622;47.726;3.298;2023-05-14T01:59:05;99205.22;;;9.13
61703;BMP280;47622;47.726;3.298;2023-05-14T02:01:31;99207.63;;;9.10
61703;BMP280;47622;47.726;3.298;2023-05-14T02:03:58;99192.78;;;9.05
61703;BMP280;47622;47.726;3.298;2023-05-14T02:06:23;99203.56;;;9.17
61703;BMP280;47622;47.726;3.298;2023-05-14T02:08:49;99199.41;;;9.16
61703;BMP280;47622;47.726;3.298;2023-05-14T02:11:15;99203.25;;;9.05
61703;BMP280;47622;47.726;3.298;2023-05-14T02:13:40;99195.97;;;9.02
61703;BMP280;47622;47.726;3.298;2023-05-14T02:16:06;99201.13;;;9.07
61703;BMP280;47622;47.726;3.298;2023-05-14T02:18:31;99204.03;;;9.06
61703;BMP280;47622;47.726;3.298;2023-05-14T02:20:57;99201.13;;;9.07
61703;BMP280;47622;47.726;3.298;2023-05-14T02:23:23;99189.81;;;9.12
61703;BMP280;47622;47.726;3.298;2023-05-14T02:25:48;99199.56;;;9.06
61703;BMP280;47622;47.726;3.298;2023-05-14T02:28:14;99200.19;;;8.98
61703;BMP280;47622;47.726;3.298;2023-05-14T02:30:39;99203.59;;;8.99
61703;BMP280;47622;47.726;3.298;2023-05-14T02:33:05;99205.94;;;9.00
61703;BMP280;47622;47.726;3.298;2023-05-14T02:35:30;99205.94;;;9.00
61703;BMP280;47622;47.726;3.298;2023-05-14T02:37:56;99203.81;;;9.02
61703;BMP280;47622;47.726;3.298;2023-05-14T02:40:24;99192.72;;;8.92
61703;BMP280;47622;47.726;3.298;2023-05-14T02:42:49;99193.22;;;8.94
61703;BMP280;47622;47.726;3.298;2023-05-14T02:45:17;99196.47;;;9.04
61703;BMP280;47622;47.726;3.298;2023-05-14T02:47:43;99196.19;;;9.06
61703;BMP280;47622;47.726;3.298;2023-05-14T02:50:09;99188.72;;;8.99
61703;BMP280;47622;47.726;3.298;2023-05-14T02:52:36;99191.97;;;8.91
61703;BMP280;47622;47.726;3.298;2023-05-14T02:55:03;99181.28;;;8.87
61703;BMP280;47622;47.726;3.298;2023-05-14T02:57:29;99181.88;;;8.84
61703;BMP280;47622;47.726;3.298;2023-05-14T02:59:56;99182.78;;;8.75
61703;BMP280;47622;47.726;3.298;2023-05-14T03:02:21;99187.38;;;8.83
61703;BMP280;47622;47.726;3.298;2023-05-14T03:04:47;99182.19;;;8.78
61703;BMP280;47622;47.726;3.298;2023-05-14T03:07:13;99179.09;;;8.76
61703;BMP280;47622;47.726;3.298;2023-05-14T03:09:38;99172.34;;;8.75
61703;BMP280;47622;47.726;3.298;2023-05-14T03:12:04;99175.25;;;8.73
61703;BMP280;47622;47.726;3.298;2023-05-14T03:14:30;99170.28;;;8.72
61703;BMP280;47622;47.726;3.298;2023-05-14T03:16:55;99171.22;;;8.62
61703;BMP280;47622;47.726;3.298;2023-05-14T03:19:21;99175.16;;;8.59
61703;BMP280;47622;47.726;3.298;2023-05-14T03:21:47;99174.75;;;8.52
61703;BMP280;47622;47.726;3.298;2023-05-14T03:24:14;99176.22;;;8.58
61703;BMP280;47622;47.726;3.298;2023-05-14T03:26:39;99162.63;;;8.56
61703;BMP280;47622;47.726;3.298;2023-05-14T03:29:05;99171.84;;;8.54
61703;BMP280;47622;47.726;3.298;2023-05-14T03:31:34;99168.75;;;8.52
61703;BMP280;47622;47.726;3.298;2023-05-14T03:33:59;99168.44;;;8.53
61703;BMP280;47622;47.726;3.298;2023-05-14T03:36:25;99167.69;;;8.53
61703;BMP280;47622;47.726;3.298;2023-05-14T03:38:50;99172.63;;;8.54
61703;BMP280;47622;47.726;3.298;2023-05-14T03:41:16;99172.13;;;8.52
61703;BMP280;47622;47.726;3.298;2023-05-14T03:43:42;99168.09;;;8.41
61703;BMP280;47622;47.726;3.298;2023-05-14T03:46:08;99172.31;;;8.37
61703;BMP280;47622;47.726;3.298;2023-05-14T03:48:33;99173.66;;;8.35
61703;BMP280;47622;47.726;3.298;2023-05-14T03:50:59;99175.78;;;8.33
61703;BMP280;47622;47.726;3.298;2023-05-14T03:53:25;99182.84;;;8.32
61703;BMP280;47622;47.726;3.298;2023-05-14T03:55:50;99188.88;;;8.27
61703;BMP280;47622;47.726;3.298;2023-05-14T03:58:16;99176.09;;;8.26
61703;BMP280;47622;47.726;3.298;2023-05-14T04:00:43;99194.34;;;8.31
61703;BMP280;47622;47.726;3.298;2023-05-14T04:03:09;99182.47;;;8.20
61703;BMP280;47622;47.726;3.298;2023-05-14T04:05:35;99189.25;;;8.21
61703;BMP280;47622;47.726;3.298;2023-05-14T04:08:00;99187.25;;;8.13
61703;BMP280;47622;47.726;3.298;2023-05-14T04:10:27;99202.34;;;8.16
61703;BMP280;47622;47.726;3.298;2023-05-14T04:12:53;99210.19;;;8.16
61703;BMP280;47622;47.726;3.298;2023-05-14T04:15:19;99208.72;;;8.05
61703;BMP280;47622;47.726;3.298;2023-05-14T04:17:45;99210.25;;;8.11
61703;BMP280;47622;47.726;3.298;2023-05-14T04:20:10;99202.69;;;8.09
61703;BMP280;47622;47.726;3.298;2023-05-14T04:22:37;99196.91;;;8.12
61703;BMP280;47622;47.726;3.298;2023-05-14T04:25:02;99209.06;;;8.22
61703;BMP280;47622;47.726;3.298;2023-05-14T04:27:28;99202.66;;;8.33
61703;BMP280;47622;47.726;3.298;2023-05-14T04:29:53;99202.88;;;8.37
61703;BMP280;47622;47.726;3.298;2023-05-14T04:32:20;99209.31;;;8.44
61703;BMP280;47622;47.726;3.298;2023-05-14T04:34:46;99209.38;;;8.39
61703;BMP280;47622;47.726;3.298;2023-05-14T04:37:12;99207.16;;;8.51
61703;BMP280;47622;47.726;3.298;2023-05-14T04:39:38;99215.66;;;8.62
61703;BMP280;47622;47.726;3.298;2023-05-14T04:42:04;99222.47;;;8.77
61703;BMP280;47622;47.726;3.298;2023-05-14T04:44:32;99217.09;;;8.87
61703;BMP280;47622;47.726;3.298;2023-05-14T04:46:57;99216.75;;;8.94
61703;BMP280;47622;47.726;3.298;2023-05-14T04:49:23;99224.09;;;9.10
61703;BMP280;47622;47.726;3.298;2023-05-14T04:51:49;99219.22;;;9.23
61703;BMP280;47622;47.726;3.298;2023-05-14T04:54:15;99218.06;;;9.29
61703;BMP280;47622;47.726;3.298;2023-05-14T04:56:40;99217.34;;;9.42
61703;BMP280;47622;47.726;3.298;2023-05-14T04:59:07;99222.56;;;9.42
61703;BMP280;47622;47.726;3.298;2023-05-14T05:01:33;99217.44;;;9.51
61703;BMP280;47622;47.726;3.298;2023-05-14T05:03:59;99222.78;;;9.59
61703;BMP280;47622;47.726;3.298;2023-05-14T05:06:25;99221.25;;;9.58
61703;BMP280;47622;47.726;3.298;2023-05-14T05:08:51;99233.66;;;9.66
61703;BMP280;47622;47.726;3.298;2023-05-14T05:11:18;99226.56;;;9.67
61703;BMP280;47622;47.726;3.298;2023-05-14T05:13:43;99230.94;;;9.71
61703;BMP280;47622;47.726;3.298;2023-05-14T05:16:09;99236.56;;;9.79
61703;BMP280;47622;47.726;3.298;2023-05-14T05:18:34;99242.78;;;9.83
61703;BMP280;47622;47.726;3.298;2023-05-14T05:21:00;99240.66;;;9.85
61703;BMP280;47622;47.726;3.298;2023-05-14T05:23:25;99249.00;;;9.87
61703;BMP280;47622;47.726;3.298;2023-05-14T05:25:51;99256.88;;;9.87
61703;BMP280;47622;47.726;3.298;2023-05-14T05:28:17;99257.16;;;9.85
61703;BMP280;47622;47.726;3.298;2023-05-14T05:30:42;99257.16;;;9.99
61703;BMP280;47622;47.726;3.298;2023-05-14T05:33:10;99256.59;;;10.02
61703;BMP280;47622;47.726;3.298;2023-05-14T05:35:36;99249.63;;;10.11
61703;BMP280;47622;47.726;3.298;2023-05-14T05:38:03;99253.66;;;10.17
61703;BMP280;47622;47.726;3.298;2023-05-14T05:40:29;99258.22;;;10.25
61703;BMP280;47622;47.726;3.298;2023-05-14T05:42:54;99255.03;;;10.28
61703;BMP280;47622;47.726;3.298;2023-05-14T05:45:22;99253.28;;;10.38
61703;BMP280;47622;47.726;3.298;2023-05-14T05:47:47;99257.34;;;10.44
61703;BMP280;47622;47.726;3.298;2023-05-14T05:50:13;99257.72;;;10.51
61703;BMP280;47622;47.726;3.298;2023-05-14T05:52:39;99256.63;;;10.52
61703;BMP280;47622;47.726;3.298;2023-05-14T05:55:05;99258.84;;;10.58
61703;BMP280;47622;47.726;3.298;2023-05-14T05:57:31;99257.28;;;10.71
61703;BMP280;47622;47.726;3.298;2023-05-14T05:59:56;99258.03;;;10.85
61703;BMP280;47622;47.726;3.298;2023-05-14T06:02:24;99264.88;;;10.95
61703;BMP280;47622;47.726;3.298;2023-05-14T06:04:50;99263.72;;;11.01
61703;BMP280;47622;47.726;3.298;2023-05-14T06:07:16;99275.34;;;11.09
61703;BMP280;47622;47.726;3.298;2023-05-14T06:09:41;99285.09;;;11.17
61703;BMP280;47622;47.726;3.298;2023-05-14T06:12:07;99280.47;;;11.14
61703;BMP280;47622;47.726;3.298;2023-05-14T06:14:33;99286.13;;;11.07
61703;BMP280;47622;47.726;3.298;2023-05-14T06:16:58;99279.16;;;11.03
61703;BMP280;47622;47.726;3.298;2023-05-14T06:19:24;99281.28;;;11.01
61703;BMP280;47622;47.726;3.298;2023-05-14T06:21:49;99286.53;;;11.01
61703;BMP280;47622;47.726;3.298;2023-05-14T06:24:15;99279.59;;;11.05
61703;BMP280;47622;47.726;3.298;2023-05-14T06:26:40;99275.69;;;10.93
61703;BMP280;47622;47.726;3.298;2023-05-14T06:29:06;99281.53;;;11.13
61703;BMP280;47622;47.726;3.298;2023-05-14T06:31:31;99285.63;;;11.27
61703;BMP280;47622;47.726;3.298;2023-05-14T06:33:57;99286.59;;;11.32
61703;BMP280;47622;47.726;3.298;2023-05-14T06:36:23;99291.63;;;11.42
61703;BMP280;47622;47.726;3.298;2023-05-14T06:38:48;99284.13;;;11.57
61703;BMP280;47622;47.726;3.298;2023-05-14T06:41:14;99280.59;;;11.62
61703;BMP280;47622;47.726;3.298;2023-05-14T06:43:39;99292.66;;;11.63
61703;BMP280;47622;47.726;3.298;2023-05-14T06:46:05;99298.84;;;11.67
61703;BMP280;47622;47.726;3.298;2023-05-14T06:48:31;99302.47;;;11.80
61703;BMP280;47622;47.726;3.298;2023-05-14T06:50:56;99287.06;;;11.65
61703;BMP280;47622;47.726;3.298;2023-05-14T06:53:23;99294.56;;;11.80
61703;BMP280;47622;47.726;3.298;2023-05-14T06:55:49;99294.19;;;11.95
61703;BMP280;47622;47.726;3.298;2023-05-14T06:58:15;99295.63;;;12.01
61703;BMP280;47622;47.726;3.298;2023-05-14T07:00:41;99300.50;;;11.85
61703;BMP280;47622;47.726;3.298;2023-05-14T07:03:06;99294.47;;;11.85
61703;BMP280;47622;47.726;3.298;2023-05-14T07:05:32;99300.22;;;11.87
61703;BMP280;47622;47.726;3.298;2023-05-14T07:07:58;99301.78;;;11.43
61703;BMP280;47622;47.726;3.298;2023-05-14T07:10:23;99305.47;;;11.65
61703;BMP280;47622;47.726;3.298;2023-05-14T07:12:49;99308.34;;;11.77
61703;BMP280;47622;47.726;3.298;2023-05-14T07:15:15;99307.97;;;11.92
61703;BMP280;47622;47.726;3.298;2023-05-14T07:17:40;99304.13;;;11.98
61703;BMP280;47622;47.726;3.298;2023-05-14T07:20:06;99306.25;;;11.96
61703;BMP280;47622;47.726;3.298;2023-05-14T07:22:32;99304.25;;;11.93
61703;BMP280;47622;47.726;3.298;2023-05-14T07:24:57;99305.34;;;11.92
61703;BMP280;47622;47.726;3.298;2023-05-14T07:27:23;99303.22;;;12.11
61703;BMP280;47622;47.726;3.298;2023-05-14T07:29:49;99311.50;;;11.96
61703;BMP280;47622;47.726;3.298;2023-05-14T07:32:15;99309.56;;;12.10
61703;BMP280;47622;47.726;3.298;2023-05-14T07:34:40;99311.97;;;12.29
61703;BMP280;47622;47.726;3.298;2023-05-14T07:37:09;99305.13;;;12.28
61703;BMP280;47622;47.726;3.298;2023-05-14T07:39:34;99307.50;;;12.47
61703;BMP280;47622;47.726;3.298;2023-05-14T07:42:00;99300.25;;;12.61
61703;BMP280;47622;47.726;3.298;2023-05-14T07:44:26;99301.50;;;12.64
61703;BMP280;47622;47.726;3.298;2023-05-14T07:46:51;99299.97;;;12.71
61703;BMP280;47622;47.726;3.298;2023-05-14T07:49:17;99302.75;;;12.84
61703;BMP280;47622;47.726;3.298;2023-05-14T07:51:42;99299.31;;;12.92
61703;BMP280;47622;47.726;3.298;2023-05-14T07:54:08;99299.63;;;12.82
61703;BMP280;47622;47.726;3.298;2023-05-14T07:56:36;99303.50;;;12.93
61703;BMP280;47622;47.726;3.298;2023-05-14T07:59:02;99306.00;;;12.98
61703;BMP280;47622;47.726;3.298;2023-05-14T08:01:27;99312.50;;;13.09
61703;BMP280;47622;47.726;3.298;2023-05-14T08:03:53;99310.31;;;13.02
61703;BMP280;47622;47.726;3.298;2023-05-14T08:06:18;99308.41;;;13.29
61703;BMP280;47622;47.726;3.298;2023-05-14T08:08:46;99304.41;;;13.23
61703;BMP280;47622;47.726;3.298;2023-05-14T08:11:11;99305.97;;;13.15
61703;BMP280;47622;47.726;3.298;2023-05-14T08:13:37;99308.28;;;13.25
61703;BMP280;47622;47.726;3.298;2023-05-14T08:16:02;99309.19;;;13.29
61703;BMP280;47622;47.726;3.298;2023-05-14T08:18:28;99316.75;;;13.57
61703;BMP280;47622;47.726;3.298;2023-05-14T08:20:53;99308.00;;;13.73
61703;BMP280;47622;47.726;3.298;2023-05-14T08:23:19;99312.88;;;13.92
61703;BMP280;47622;47.726;3.298;2023-05-14T08:25:44;99319.44;;;14.66
61703;BMP280;47622;47.726;3.298;2023-05-14T08:28:10;99324.00;;;15.32
61703;BMP280;47622;47.726;3.298;2023-05-14T08:30:36;99323.75;;;15.04
61703;BMP280;47622;47.726;3.298;2023-05-14T08:33:02;99329.53;;;14.85
61703;BMP280;47622;47.726;3.298;2023-05-14T08:35:27;99317.53;;;14.87
61703;BMP280;47622;47.726;3.298;2023-05-14T08:37:53;99327.28;;;14.75
61703;BMP280;47622;47.726;3.298;2023-05-14T08:40:18;99325.66;;;14.61
61703;BMP280;47622;47.726;3.298;2023-05-14T08:42:44;99311.59;;;14.28
61703;BMP280;47622;47.726;3.298;2023-05-14T08:45:20;99320.38;;;14.20
61703;BMP280;47622;47.726;3.298;2023-05-14T08:47:50;99326.81;;;14.01
61703;BMP280;47622;47.726;3.298;2023-05-14T08:50:16;99318.63;;;13.94
61703;BMP280;47622;47.726;3.298;2023-05-14T08:52:44;99326.75;;;14.10
61703;BMP280;47622;47.726;3.298;2023-05-14T08:55:11;99330.53;;;14.51
61703;BMP280;47622;47.726;3.298;2023-05-14T08:57:36;99331.44;;;14.34
61703;BMP280;47622;47.726;3.298;2023-05-14T09:00:03;99335.97;;;14.25
61703;BMP280;47622;47.726;3.298;2023-05-14T09:02:39;99342.47;;;14.36
61703;BMP280;47622;47.726;3.298;2023-05-14T09:05:07;99346.00;;;14.11
61703;BMP280;47622;47.726;3.298;2023-05-14T09:07:33;99334.09;;;14.04
61703;BMP280;47622;47.726;3.298;2023-05-14T09:10:00;99336.84;;;14.08
61703;BMP280;47622;47.726;3.298;2023-05-14T09:12:26;99330.22;;;14.31
61703;BMP280;47622;47.726;3.298;2023-05-14T09:14:52;99333.84;;;14.48
61703;BMP280;47622;47.726;3.298;2023-05-14T09:17:18;99337.88;;;14.87
61703;BMP280;47622;47.726;3.298;2023-05-14T09:19:45;99336.13;;;14.79
61703;BMP280;47622;47.726;3.298;2023-05-14T09:22:15;99337.63;;;14.38
61703;BMP280;47622;47.726;3.298;2023-05-14T09:24:40;99333.34;;;14.25
61703;BMP280;47622;47.726;3.298;2023-05-14T09:27:07;99346.75;;;14.41
61703;BMP280;47622;47.726;3.298;2023-05-14T09:29:33;99339.31;;;14.63
61703;BMP280;47622;47.726;3.298;2023-05-14T09:31:59;99335.53;;;14.52
61703;BMP280;47622;47.726;3.298;2023-05-14T09:34:33;99343.44;;;14.52
61703;BMP280;47622;47.726;3.298;2023-05-14T09:37:04;99341.75;;;14.48
61703;BMP280;47622;47.726;3.298;2023-05-14T09:39:31;99341.00;;;14.47
61703;BMP280;47622;47.726;3.298;2023-05-14T09:41:57;99338.72;;;14.37
61703;BMP280;47622;47.726;3.298;2023-05-14T09:44:23;99346.47;;;14.42
61703;BMP280;47622;47.726;3.298;2023-05-14T09:46:50;99351.81;;;14.54
61703;BMP280;47622;47.726;3.298;2023-05-14T09:49:18;99355.84;;;14.52
61703;BMP280;47622;47.726;3.298;2023-05-14T09:51:44;99359.75;;;14.46
61703;BMP280;47622;47.726;3.298;2023-05-14T09:54:09;99361.34;;;14.09
61703;BMP280;47622;47.726;3.298;2023-05-14T09:56:35;99353.00;;;14.07
61703;BMP280;47622;47.726;3.298;2023-05-14T09:59:02;99356.56;;;14.02
61703;BMP280;47622;47.726;3.298;2023-05-14T10:01:29;99350.38;;;14.07
61703;BMP280;47622;47.726;3.298;2023-05-14T10:03:55;99362.78;;;14.56
61703;BMP280;47622;47.726;3.298;2023-05-14T10:06:24;99367.00;;;14.57
61703;BMP280;47622;47.726;3.298;2023-05-14T10:08:55;99355.16;;;14.43
61703;BMP280;47622;47.726;3.298;2023-05-14T10:11:27;99355.56;;;14.45
61703;BMP280;47622;47.726;3.298;2023-05-14T10:14:10;99351.25;;;14.40
61703;BMP280;47622;47.726;3.298;2023-05-14T10:16:46;99359.78;;;14.87
61703;BMP280;47622;47.726;3.298;2023-05-14T10:19:14;99351.72;;;15.38
61703;BMP280;47622;47.726;3.298;2023-05-14T10:21:45;99346.97;;;15.31
61703;BMP280;47622;47.726;3.298;2023-05-14T10:24:11;99350.28;;;14.95
61703;BMP280;47622;47.726;3.298;2023-05-14T10:26:39;99340.50;;;15.41
61703;BMP280;47622;47.726;3.298;2023-05-14T10:29:08;99341.09;;;15.13
61703;BMP280;47622;47.726;3.298;2023-05-14T10:31:50;99344.25;;;15.40
61703;BMP280;47622;47.726;3.298;2023-05-14T10:34:38;99345.72;;;15.16
61703;BMP280;47622;47.726;3.298;2023-05-14T10:37:13;99338.25;;;15.18
61703;BMP280;47622;47.726;3.298;2023-05-14T10:40:00;99347.31;;;15.42
61703;BMP280;47622;47.726;3.298;2023-05-14T10:42:32;99345.47;;;15.54
61703;BMP280;47622;47.726;3.298;2023-05-14T10:45:06;99351.97;;;15.45
61703;BMP280;47622;47.726;3.298;2023-05-14T10:47:41;99339.19;;;15.47
61703;BMP280;47622;47.726;3.298;2023-05-14T10:50:09;99350.00;;;15.09
61703;BMP280;47622;47.726;3.298;2023-05-14T10:52:35;99346.41;;;14.72
61703;BMP280;47622;47.726;3.298;2023-05-14T10:55:05;99348.84;;;14.56
61703;BMP280;47622;47.726;3.298;2023-05-14T10:57:37;99349.16;;;14.75
61703;BMP280;47622;47.726;3.298;2023-05-14T11:00:05;99351.28;;;14.61
61703;BMP280;47622;47.726;3.298;2023-05-14T11:02:44;99341.75;;;15.10
61703;BMP280;47622;47.726;3.298;2023-05-14T11:05:13;99345.59;;;14.92
61703;BMP280;47622;47.726;3.298;2023-05-14T11:07:43;99340.06;;;15.06
61703;BMP280;47622;47.726;3.298;2023-05-14T11:10:15;99352.44;;;14.93
61703;BMP280;47622;47.726;3.298;2023-05-14T11:12:45;99342.53;;;14.69
61703;BMP280;47622;47.726;3.298;2023-05-14T11:15:13;99339.97;;;14.60
61703;BMP280;47622;47.726;3.298;2023-05-14T11:17:41;99348.31;;;14.83
61703;BMP280;47622;47.726;3.298;2023-05-14T11:20:07;99345.44;;;15.30
61703;BMP280;47622;47.726;3.298;2023-05-14T11:22:34;99344.56;;;15.26
61703;BMP280;47622;47.726;3.298;2023-05-14T11:25:00;99334.88;;;15.09
61703;BMP280;47622;47.726;3.298;2023-05-14T11:27:25;99342.84;;;14.88
61703;BMP280;47622;47.726;3.298;2023-05-14T11:29:51;99337.78;;;14.42
61703;BMP280;47622;47.726;3.298;2023-05-14T11:32:18;99329.75;;;14.50
61703;BMP280;47622;47.726;3.298;2023-05-14T11:34:44;99336.19;;;14.20
61703;BMP280;47622;47.726;3.298;2023-05-14T11:37:11;99335.59;;;14.44
61703;BMP280;47622;47.726;3.298;2023-05-14T11:39:38;99338.81;;;14.49
61703;BMP280;47622;47.726;3.298;2023-05-14T11:42:04;99328.91;;;13.79
61703;BMP280;47622;47.726;3.298;2023-05-14T11:44:33;99333.44;;;14.08
61703;BMP280;47622;47.726;3.298;2023-05-14T11:46:59;99332.41;;;14.00
61703;BMP280;47622;47.726;3.298;2023-05-14T11:49:29;99316.84;;;14.07
61703;BMP280;47622;47.726;3.298;2023-05-14T11:52:00;99321.28;;;14.65
61703;BMP280;47622;47.726;3.298;2023-05-14T11:54:29;99321.28;;;14.86
61703;BMP280;47622;47.726;3.298;2023-05-14T11:56:56;99311.53;;;14.99
61703;BMP280;47622;47.726;3.298;2023-05-14T11:59:33;99305.06;;;14.76
61703;BMP280;47622;47.726;3.298;2023-05-14T12:01:59;99310.50;;;15.24
61703;BMP280;47622;47.726;3.298;2023-05-14T12:04:24;99312.47;;;15.15
61703;BMP280;47622;47.726;3.298;2023-05-14T12:06:51;99313.34;;;15.07
61703;BMP280;47622;47.726;3.298;2023-05-14T12:09:19;99312.34;;;15.12
61703;BMP280;47622;47.726;3.298;2023-05-14T12:11:46;99310.72;;;14.86
61703;BMP280;47622;47.726;3.298;2023-05-14T12:14:20;99310.59;;;14.83
61703;BMP280;47622;47.726;3.298;2023-05-14T12:16:47;99317.00;;;14.94
61703;BMP280;47622;47.726;3.298;2023-05-14T12:19:14;99304.91;;;14.93
61703;BMP280;47622;47.726;3.298;2023-05-14T12:21:42;99309.56;;;14.96
61703;BMP280;47622;47.726;3.298;2023-05-14T12:24:14;99299.19;;;14.91
61703;BMP280;47622;47.726;3.298;2023-05-14T12:26:44;99299.66;;;14.51
61703;BMP280;47622;47.726;3.298;2023-05-14T12:29:12;99295.16;;;14.73
61703;BMP280;47622;47.726;3.298;2023-05-14T12:31:44;99304.50;;;14.49
61703;BMP280;47622;47.726;3.298;2023-05-14T12:34:10;99292.34;;;14.36
61703;BMP280;47622;47.726;3.298;2023-05-14T12:36:39;99284.84;;;14.80
61703;BMP280;47622;47.726;3.298;2023-05-14T12:39:05;99298.31;;;14.99
61703;BMP280;47622;47.726;3.298;2023-05-14T12:41:31;99290.50;;;14.90
61703;BMP280;47622;47.726;3.298;2023-05-14T12:43:58;99291.06;;;14.96
61703;BMP280;47622;47.726;3.298;2023-05-14T12:46:25;99287.03;;;14.78
61703;BMP280;47622;47.726;3.298;2023-05-14T12:48:51;99282.03;;;14.64
61703;BMP280;47622;47.726;3.298;2023-05-14T12:51:16;99284.28;;;14.53
61703;BMP280;47622;47.726;3.298;2023-05-14T12:53:42;99288.66;;;14.49
61703;BMP280;47622;47.726;3.298;2023-05-14T12:56:08;99277.13;;;14.75
61703;BMP280;47622;47.726;3.298;2023-05-14T12:58:33;99286.69;;;15.00
61703;BMP280;47622;47.726;3.298;2023-05-14T13:00:59;99287.53;;;15.04
61703;BMP280;47622;47.726;3.298;2023-05-14T13:03:25;99284.41;;;15.11
61703;BMP280;47622;47.726;3.298;2023-05-14T13:05:51;99285.16;;;15.11
61703;BMP280;47622;47.726;3.298;2023-05-14T13:08:17;99283.34;;;15.03
61703;BMP280;47622;47.726;3.298;2023-05-14T13:10:43;99284.16;;;15.37
61703;BMP280;47622;47.726;3.298;2023-05-14T13:13:09;99274.75;;;15.39
61703;BMP280;47622;47.726;3.298;2023-05-14T13:15:36;99275.28;;;14.87
61703;BMP280;47622;47.726;3.298;2023-05-14T13:18:02;99267.84;;;14.68
61703;BMP280;47622;47.726;3.298;2023-05-14T13:20:27;99266.38;;;14.92
61703;BMP280;47622;47.726;3.298;2023-05-14T13:22:55;99264.19;;;14.94
61703;BMP280;47622;47.726;3.298;2023-05-14T13:25:21;99266.06;;;14.93
61703;BMP280;47622;47.726;3.298;2023-05-14T13:27:47;99266.41;;;15.37
61703;BMP280;47622;47.726;3.298;2023-05-14T13:30:16;99260.88;;;15.30
61703;BMP280;47622;47.726;3.298;2023-05-14T13:32:42;99268.69;;;15.39
61703;BMP280;47622;47.726;3.298;2023-05-14T13:35:08;99262.56;;;15.59
61703;BMP280;47622;47.726;3.298;2023-05-14T13:37:33;99267.28;;;15.66
61703;BMP280;47622;47.726;3.298;2023-05-14T13:39:59;99255.38;;;15.72
61703;BMP280;47622;47.726;3.298;2023-05-14T13:42:24;99267.84;;;15.59
61703;BMP280;47622;47.726;3.298;2023-05-14T13:44:51;99262.66;;;15.50
61703;BMP280;47622;47.726;3.298;2023-05-14T13:47:16;99264.31;;;15.67
61703;BMP280;47622;47.726;3.298;2023-05-14T13:49:42;99258.13;;;15.39
61703;BMP280;47622;47.726;3.298;2023-05-14T13:52:07;99251.72;;;15.27
61703;BMP280;47622;47.726;3.298;2023-05-14T13:54:33;99251.72;;;15.27
61703;BMP280;47622;47.726;3.298;2023-05-14T13:56:58;99257.16;;;14.98
61703;BMP280;47622;47.726;3.298;2023-05-14T13:59:24;99245.56;;;15.11
61703;BMP280;47622;47.726;3.298;2023-05-14T14:01:50;99246.38;;;15.48
61703;BMP280;47622;47.726;3.298;2023-05-14T14:04:15;99260.56;;;15.44
61703;BMP280;47622;47.726;3.298;2023-05-14T14:06:42;99256.03;;;14.87
61703;BMP280;47622;47.726;3.298;2023-05-14T14:09:07;99255.81;;;14.80
61703;BMP280;47622;47.726;3.298;2023-05-14T14:11:34;99253.91;;;14.80
61703;BMP280;47622;47.726;3.298;2023-05-14T14:14:00;99252.78;;;15.02
61703;BMP280;47622;47.726;3.298;2023-05-14T14:16:25;99239.16;;;15.12
61703;BMP280;47622;47.726;3.298;2023-05-14T14:18:50;99250.94;;;15.03